sensor_id;sensor_type;location;lat;lon;timestamp;P1;durP1;ratioP1;P2;durP2;ratioP2
77531;SDS011;70100;44.486;0.266;2023-08-12T00:00:12;6.80;;;3.60;;
77531;SDS011;70100;44.486;0.266;2023-08-12T00:05:44;8.40;;;3.70;;
77531;SDS011;70100;44.486;0.266;2023-08-12T00:11:14;8.47;;;3.40;;
77531;SDS011;70100;44.486;0.266;2023-08-12T00:16:46;6.00;;;3.17;;
77531;SDS011;70100;44.486;0.266;2023-08-12T00:22:18;6.20;;;2.83;;
77531;SDS011;70100;44.486;0.266;2023-08-12T00:27:50;6.60;;;2.83;;
77531;SDS011;70100;44.486;0.266;2023-08-12T00:33:22;10.63;;;3.23;;
77531;SDS011;70100;44.486;0.266;2023-08-12T00:38:56;9.07;;;2.73;;
77531;SDS011;70100;44.486;0.266;2023-08-12T00:44:27;7.93;;;3.03;;
77531;SDS011;70100;44.486;0.266;2023-08-12T00:49:59;5.90;;;3.57;;
77531;SDS011;70100;44.486;0.266;2023-08-12T00:55:33;9.23;;;3.67;;
77531;SDS011;70100;44.486;0.266;2023-08-12T01:01:06;5.67;;;3.30;;
77531;SDS011;70100;44.486;0.266;2023-08-12T01:06:39;6.20;;;2.73;;
77531;SDS011;70100;44.486;0.266;2023-08-12T01:12:12;4.47;;;2.70;;
77531;SDS011;70100;44.486;0.266;2023-08-12T01:17:45;6.47;;;3.57;;
77531;SDS011;70100;44.486;0.266;2023-08-12T01:23:17;6.10;;;2.60;;
77531;SDS011;70100;44.486;0.266;2023-08-12T01:28:50;7.57;;;3.43;;
77531;SDS011;70100;44.486;0.266;2023-08-12T01:34:25;6.83;;;3.10;;
77531;SDS011;70100;44.486;0.266;2023-08-12T01:39:56;7.90;;;3.10;;
77531;SDS011;70100;44.486;0.266;2023-08-12T01:45:30;8.73;;;4.27;;
77531;SDS011;70100;44.486;0.266;2023-08-12T01:51:01;7.50;;;4.23;;
77531;SDS011;70100;44.486;0.266;2023-08-12T01:56:32;5.50;;;3.67;;
77531;SDS011;70100;44.486;0.266;2023-08-12T02:02:05;7.43;;;3.13;;
77531;SDS011;70100;44.486;0.266;2023-08-12T02:07:37;7.90;;;2.87;;
77531;SDS011;70100;44.486;0.266;2023-08-12T02:13:10;7.90;;;2.77;;
77531;SDS011;70100;44.486;0.266;2023-08-12T02:18:43;8.70;;;3.50;;
77531;SDS011;70100;44.486;0.266;2023-08-12T02:24:15;9.97;;;3.37;;
77531;SDS011;70100;44.486;0.266;2023-08-12T02:29:47;7.70;;;3.57;;
77531;SDS011;70100;44.486;0.266;2023-08-12T02:35:20;8.67;;;2.67;;
77531;SDS011;70100;44.486;0.266;2023-08-12T02:40:53;8.40;;;3.90;;
77531;SDS011;70100;44.486;0.266;2023-08-12T02:46:26;9.67;;;4.47;;
77531;SDS011;70100;44.486;0.266;2023-08-12T02:52:00;9.47;;;3.50;;
77531;SDS011;70100;44.486;0.266;2023-08-12T02:57:32;8.17;;;2.87;;
77531;SDS011;70100;44.486;0.266;2023-08-12T03:03:05;9.43;;;3.00;;
77531;SDS011;70100;44.486;0.266;2023-08-12T03:08:39;9.20;;;3.40;;
77531;SDS011;70100;44.486;0.266;2023-08-12T03:14:11;9.37;;;3.43;;
77531;SDS011;70100;44.486;0.266;2023-08-12T03:19:43;13.53;;;4.03;;
77531;SDS011;70100;44.486;0.266;2023-08-12T03:25:15;9.60;;;3.17;;
77531;SDS011;70100;44.486;0.266;2023-08-12T03:30:50;9.03;;;3.27;;
77531;SDS011;70100;44.486;0.266;2023-08-12T03:36:21;13.37;;;4.20;;
77531;SDS011;70100;44.486;0.266;2023-08-12T03:41:54;8.90;;;4.73;;
77531;SDS011;70100;44.486;0.266;2023-08-12T03:47:26;6.67;;;3.33;;
77531;SDS011;70100;44.486;0.266;2023-08-12T03:52:58;11.80;;;3.47;;
77531;SDS011;70100;44.486;0.266;2023-08-12T03:58:32;10.13;;;4.00;;
77531;SDS011;70100;44.486;0.266;2023-08-12T04:04:04;12.37;;;4.20;;
77531;SDS011;70100;44.486;0.266;2023-08-12T04:09:37;11.37;;;3.87;;
77531;SDS011;70100;44.486;0.266;2023-08-12T04:15:09;7.23;;;3.17;;
77531;SDS011;70100;44.486;0.266;2023-08-12T04:20:41;10.50;;;3.60;;
77531;SDS011;70100;44.486;0.266;2023-08-12T04:26:14;9.57;;;3.63;;
77531;SDS011;70100;44.486;0.266;2023-08-12T04:31:48;10.87;;;4.47;;
77531;SDS011;70100;44.486;0.266;2023-08-12T04:37:23;11.47;;;4.03;;
77531;SDS011;70100;44.486;0.266;2023-08-12T04:42:53;10.10;;;3.80;;
77531;SDS011;70100;44.486;0.266;2023-08-12T04:48:27;7.17;;;2.70;;
77531;SDS011;70100;44.486;0.266;2023-08-12T04:54:01;11.10;;;3.97;;
77531;SDS011;70100;44.486;0.266;2023-08-12T04:59:33;10.17;;;3.60;;
77531;SDS011;70100;44.486;0.266;2023-08-12T05:05:06;8.20;;;3.87;;
77531;SDS011;70100;44.486;0.266;2023-08-12T05:10:38;10.00;;;3.97;;
77531;SDS011;70100;44.486;0.266;2023-08-12T05:16:10;7.10;;;4.00;;
77531;SDS011;70100;44.486;0.266;2023-08-12T05:21:43;12.20;;;4.40;;
77531;SDS011;70100;44.486;0.266;2023-08-12T05:27:16;11.80;;;5.53;;
77531;SDS011;70100;44.486;0.266;2023-08-12T05:32:49;6.77;;;4.23;;
77531;SDS011;70100;44.486;0.266;2023-08-12T05:38:22;7.80;;;3.33;;
77531;SDS011;70100;44.486;0.266;2023-08-12T05:43:55;12.00;;;3.83;;
77531;SDS011;70100;44.486;0.266;2023-08-12T05:55:00;13.90;;;4.93;;
77531;SDS011;70100;44.486;0.266;2023-08-12T06:00:32;11.00;;;3.87;;
77531;SDS011;70100;44.486;0.266;2023-08-12T06:11:38;11.73;;;4.13;;
77531;SDS011;70100;44.486;0.266;2023-08-12T06:17:11;11.40;;;3.97;;
77531;SDS011;70100;44.486;0.266;2023-08-12T06:28:16;9.47;;;5.27;;
77531;SDS011;70100;44.486;0.266;2023-08-12T06:33:50;15.07;;;4.47;;
77531;SDS011;70100;44.486;0.266;2023-08-12T06:39:24;9.57;;;4.30;;
77531;SDS011;70100;44.486;0.266;2023-08-12T06:44:56;8.63;;;3.97;;
77531;SDS011;70100;44.486;0.266;2023-08-12T06:50:29;10.40;;;4.73;;
77531;SDS011;70100;44.486;0.266;2023-08-12T06:56:00;10.97;;;3.87;;
77531;SDS011;70100;44.486;0.266;2023-08-12T07:01:34;12.23;;;5.17;;
77531;SDS011;70100;44.486;0.266;2023-08-12T07:07:05;9.63;;;4.13;;
77531;SDS011;70100;44.486;0.266;2023-08-12T07:12:39;7.17;;;3.90;;
77531;SDS011;70100;44.486;0.266;2023-08-12T07:18:11;8.07;;;4.43;;
77531;SDS011;70100;44.486;0.266;2023-08-12T07:23:43;14.57;;;5.93;;
77531;SDS011;70100;44.486;0.266;2023-08-12T07:29:16;9.60;;;5.03;;
77531;SDS011;70100;44.486;0.266;2023-08-12T07:34:49;13.43;;;4.47;;
77531;SDS011;70100;44.486;0.266;2023-08-12T07:40:21;9.13;;;4.27;;
77531;SDS011;70100;44.486;0.266;2023-08-12T07:45:54;9.63;;;4.93;;
77531;SDS011;70100;44.486;0.266;2023-08-12T07:51:28;10.00;;;4.90;;
77531;SDS011;70100;44.486;0.266;2023-08-12T07:57:00;10.87;;;5.33;;
77531;SDS011;70100;44.486;0.266;2023-08-12T08:02:33;7.93;;;4.47;;
77531;SDS011;70100;44.486;0.266;2023-08-12T08:08:05;7.47;;;3.80;;
77531;SDS011;70100;44.486;0.266;2023-08-12T08:13:38;9.67;;;4.30;;
77531;SDS011;70100;44.486;0.266;2023-08-12T08:19:11;8.10;;;3.10;;
77531;SDS011;70100;44.486;0.266;2023-08-12T08:24:45;5.90;;;4.00;;
77531;SDS011;70100;44.486;0.266;2023-08-12T08:30:17;6.47;;;3.20;;
77531;SDS011;70100;44.486;0.266;2023-08-12T08:35:50;8.67;;;4.10;;
77531;SDS011;70100;44.486;0.266;2023-08-12T08:41:22;8.43;;;3.17;;
77531;SDS011;70100;44.486;0.266;2023-08-12T08:46:55;5.73;;;2.80;;
77531;SDS011;70100;44.486;0.266;2023-08-12T08:52:29;3.97;;;2.57;;
77531;SDS011;70100;44.486;0.266;2023-08-12T08:58:01;8.07;;;2.60;;
77531;SDS011;70100;44.486;0.266;2023-08-12T09:03:34;5.53;;;3.00;;
77531;SDS011;70100;44.486;0.266;2023-08-12T09:09:09;5.63;;;2.47;;
77531;SDS011;70100;44.486;0.266;2023-08-12T09:14:41;5.90;;;3.00;;
77531;SDS011;70100;44.486;0.266;2023-08-12T09:20:14;7.07;;;2.63;;
77531;SDS011;70100;44.486;0.266;2023-08-12T09:25:47;3.50;;;1.60;;
77531;SDS011;70100;44.486;0.266;2023-08-12T09:31:22;4.93;;;2.10;;
77531;SDS011;70100;44.486;0.266;2023-08-12T09:36:53;6.97;;;2.20;;
77531;SDS011;70100;44.486;0.266;2023-08-12T09:42:27;5.30;;;1.90;;
77531;SDS011;70100;44.486;0.266;2023-08-12T09:47:59;8.17;;;2.83;;
77531;SDS011;70100;44.486;0.266;2023-08-12T09:53:32;6.53;;;2.30;;
77531;SDS011;70100;44.486;0.266;2023-08-12T09:59:04;4.93;;;2.10;;
77531;SDS011;70100;44.486;0.266;2023-08-12T10:10:10;3.43;;;2.23;;
77531;SDS011;70100;44.486;0.266;2023-08-12T10:15:42;5.70;;;1.97;;
77531;SDS011;70100;44.486;0.266;2023-08-12T10:21:14;2.20;;;1.37;;
77531;SDS011;70100;44.486;0.266;2023-08-12T10:26:47;3.70;;;1.93;;
77531;SDS011;70100;44.486;0.266;2023-08-12T10:32:21;7.90;;;2.00;;
77531;SDS011;70100;44.486;0.266;2023-08-12T10:37:52;2.20;;;1.60;;
77531;SDS011;70100;44.486;0.266;2023-08-12T10:43:23;3.63;;;1.73;;
77531;SDS011;70100;44.486;0.266;2023-08-12T10:48:57;4.17;;;1.70;;
77531;SDS011;70100;44.486;0.266;2023-08-12T10:54:30;3.93;;;1.90;;
77531;SDS011;70100;44.486;0.266;2023-08-12T11:00:02;3.63;;;2.03;;
77531;SDS011;70100;44.486;0.266;2023-08-12T11:05:36;3.50;;;2.23;;
77531;SDS011;70100;44.486;0.266;2023-08-12T11:11:18;2.30;;;1.33;;
77531;SDS011;70100;44.486;0.266;2023-08-12T11:16:40;6.13;;;1.70;;
77531;SDS011;70100;44.486;0.266;2023-08-12T11:22:13;5.37;;;1.67;;
77531;SDS011;70100;44.486;0.266;2023-08-12T11:27:46;4.30;;;1.87;;
77531;SDS011;70100;44.486;0.266;2023-08-12T11:33:19;2.93;;;1.10;;
77531;SDS011;70100;44.486;0.266;2023-08-12T11:38:52;3.87;;;1.47;;
77531;SDS011;70100;44.486;0.266;2023-08-12T11:44:25;1.97;;;1.10;;
77531;SDS011;70100;44.486;0.266;2023-08-12T11:49:57;2.17;;;1.17;;
77531;SDS011;70100;44.486;0.266;2023-08-12T11:55:30;3.23;;;1.70;;
77531;SDS011;70100;44.486;0.266;2023-08-12T12:01:03;2.57;;;1.90;;
77531;SDS011;70100;44.486;0.266;2023-08-12T12:06:36;3.30;;;1.80;;
77531;SDS011;70100;44.486;0.266;2023-08-12T12:12:09;1.40;;;1.07;;
77531;SDS011;70100;44.486;0.266;2023-08-12T12:23:11;2.60;;;1.70;;
77531;SDS011;70100;44.486;0.266;2023-08-12T12:28:44;4.67;;;2.10;;
77531;SDS011;70100;44.486;0.266;2023-08-12T12:34:18;6.20;;;2.30;;
77531;SDS011;70100;44.486;0.266;2023-08-12T12:39:50;4.63;;;2.00;;
77531;SDS011;70100;44.486;0.266;2023-08-12T12:45:22;2.10;;;1.80;;
77531;SDS011;70100;44.486;0.266;2023-08-12T12:50:55;4.10;;;2.70;;
77531;SDS011;70100;44.486;0.266;2023-08-12T12:56:27;5.20;;;2.50;;
77531;SDS011;70100;44.486;0.266;2023-08-12T13:02:00;4.30;;;2.70;;
77531;SDS011;70100;44.486;0.266;2023-08-12T13:13:05;4.07;;;1.83;;
77531;SDS011;70100;44.486;0.266;2023-08-12T13:18:37;4.33;;;2.17;;
77531;SDS011;70100;44.486;0.266;2023-08-12T13:24:10;3.43;;;1.40;;
77531;SDS011;70100;44.486;0.266;2023-08-12T13:29:42;3.53;;;2.47;;
77531;SDS011;70100;44.486;0.266;2023-08-12T13:35:16;5.93;;;1.77;;
77531;SDS011;70100;44.486;0.266;2023-08-12T13:40:49;4.50;;;1.70;;
77531;SDS011;70100;44.486;0.266;2023-08-12T13:46:21;2.97;;;2.47;;
77531;SDS011;70100;44.486;0.266;2023-08-12T13:51:54;6.33;;;2.27;;
77531;SDS011;70100;44.486;0.266;2023-08-12T13:57:27;4.47;;;1.57;;
77531;SDS011;70100;44.486;0.266;2023-08-12T14:02:59;2.97;;;1.50;;
77531;SDS011;70100;44.486;0.266;2023-08-12T14:08:32;2.80;;;1.67;;
77531;SDS011;70100;44.486;0.266;2023-08-12T14:14:04;3.43;;;1.83;;
77531;SDS011;70100;44.486;0.266;2023-08-12T14:19:36;3.33;;;1.60;;
77531;SDS011;70100;44.486;0.266;2023-08-12T14:25:11;5.03;;;1.97;;
77531;SDS011;70100;44.486;0.266;2023-08-12T14:36:14;9.17;;;1.97;;
77531;SDS011;70100;44.486;0.266;2023-08-12T14:41:46;3.33;;;2.70;;
77531;SDS011;70100;44.486;0.266;2023-08-12T14:47:19;4.47;;;2.50;;
77531;SDS011;70100;44.486;0.266;2023-08-12T14:52:52;5.53;;;2.03;;
77531;SDS011;70100;44.486;0.266;2023-08-12T14:58:24;3.67;;;2.23;;
77531;SDS011;70100;44.486;0.266;2023-08-12T15:03:56;5.03;;;2.03;;
77531;SDS011;70100;44.486;0.266;2023-08-12T15:09:30;5.80;;;2.40;;
77531;SDS011;70100;44.486;0.266;2023-08-12T15:15:03;3.03;;;2.20;;
77531;SDS011;70100;44.486;0.266;2023-08-12T15:20:36;4.87;;;2.27;;
77531;SDS011;70100;44.486;0.266;2023-08-12T15:26:10;4.13;;;1.83;;
77531;SDS011;70100;44.486;0.266;2023-08-12T15:31:43;3.77;;;1.80;;
77531;SDS011;70100;44.486;0.266;2023-08-12T15:37:15;2.73;;;2.20;;
77531;SDS011;70100;44.486;0.266;2023-08-12T15:42:49;3.43;;;2.70;;
77531;SDS011;70100;44.486;0.266;2023-08-12T15:48:20;3.13;;;2.47;;
77531;SDS011;70100;44.486;0.266;2023-08-12T15:53:53;3.03;;;1.83;;
77531;SDS011;70100;44.486;0.266;2023-08-12T15:59:24;3.43;;;2.03;;
77531;SDS011;70100;44.486;0.266;2023-08-12T16:04:57;2.80;;;1.80;;
77531;SDS011;70100;44.486;0.266;2023-08-12T16:10:30;5.20;;;2.10;;
77531;SDS011;70100;44.486;0.266;2023-08-12T16:16:03;4.67;;;1.87;;
77531;SDS011;70100;44.486;0.266;2023-08-12T16:21:36;5.20;;;2.10;;
77531;SDS011;70100;44.486;0.266;2023-08-12T16:27:07;3.57;;;2.30;;
77531;SDS011;70100;44.486;0.266;2023-08-12T16:32:40;4.80;;;2.87;;
77531;SDS011;70100;44.486;0.266;2023-08-12T16:38:13;4.73;;;3.13;;
77531;SDS011;70100;44.486;0.266;2023-08-12T16:43:47;3.10;;;2.80;;
77531;SDS011;70100;44.486;0.266;2023-08-12T16:49:20;4.87;;;2.57;;
77531;SDS011;70100;44.486;0.266;2023-08-12T16:54:52;4.83;;;3.70;;
77531;SDS011;70100;44.486;0.266;2023-08-12T17:00:24;5.77;;;2.83;;
77531;SDS011;70100;44.486;0.266;2023-08-12T17:05:56;7.33;;;4.33;;
77531;SDS011;70100;44.486;0.266;2023-08-12T17:11:28;4.77;;;2.53;;
77531;SDS011;70100;44.486;0.266;2023-08-12T17:17:02;4.60;;;2.43;;
77531;SDS011;70100;44.486;0.266;2023-08-12T17:22:33;9.93;;;6.43;;
77531;SDS011;70100;44.486;0.266;2023-08-12T17:28:05;5.40;;;3.47;;
77531;SDS011;70100;44.486;0.266;2023-08-12T17:33:38;6.17;;;4.40;;
77531;SDS011;70100;44.486;0.266;2023-08-12T17:39:10;4.73;;;2.57;;
77531;SDS011;70100;44.486;0.266;2023-08-12T17:44:43;3.73;;;2.40;;
77531;SDS011;70100;44.486;0.266;2023-08-12T17:50:15;3.47;;;2.23;;
77531;SDS011;70100;44.486;0.266;2023-08-12T17:55:48;10.43;;;6.10;;
77531;SDS011;70100;44.486;0.266;2023-08-12T18:01:22;3.70;;;2.37;;
77531;SDS011;70100;44.486;0.266;2023-08-12T18:06:54;5.80;;;2.90;;
77531;SDS011;70100;44.486;0.266;2023-08-12T18:12:27;5.03;;;2.23;;
77531;SDS011;70100;44.486;0.266;2023-08-12T18:18:00;3.13;;;2.43;;
77531;SDS011;70100;44.486;0.266;2023-08-12T18:23:33;5.20;;;3.40;;
77531;SDS011;70100;44.486;0.266;2023-08-12T18:29:06;4.30;;;2.50;;
77531;SDS011;70100;44.486;0.266;2023-08-12T18:34:38;5.10;;;2.43;;
77531;SDS011;70100;44.486;0.266;2023-08-12T18:40:11;3.00;;;1.90;;
77531;SDS011;70100;44.486;0.266;2023-08-12T18:45:43;7.00;;;1.93;;
77531;SDS011;70100;44.486;0.266;2023-08-12T18:51:14;3.73;;;2.43;;
77531;SDS011;70100;44.486;0.266;2023-08-12T18:56:46;2.97;;;1.70;;
77531;SDS011;70100;44.486;0.266;2023-08-12T19:02:20;1.97;;;1.77;;
77531;SDS011;70100;44.486;0.266;2023-08-12T19:07:51;2.03;;;1.60;;
77531;SDS011;70100;44.486;0.266;2023-08-12T19:13:24;1.93;;;1.67;;
77531;SDS011;70100;44.486;0.266;2023-08-12T19:18:57;2.63;;;1.93;;
77531;SDS011;70100;44.486;0.266;2023-08-12T19:24:29;1.27;;;1.17;;
77531;SDS011;70100;44.486;0.266;2023-08-12T19:30:04;1.53;;;0.90;;
77531;SDS011;70100;44.486;0.266;2023-08-12T19:35:35;1.63;;;0.93;;
77531;SDS011;70100;44.486;0.266;2023-08-12T19:41:07;2.07;;;1.10;;
77531;SDS011;70100;44.486;0.266;2023-08-12T19:46:40;2.63;;;2.33;;
77531;SDS011;70100;44.486;0.266;2023-08-12T19:52:12;4.20;;;3.03;;
77531;SDS011;70100;44.486;0.266;2023-08-12T19:57:44;2.83;;;1.67;;
77531;SDS011;70100;44.486;0.266;2023-08-12T20:03:18;4.30;;;1.40;;
77531;SDS011;70100;44.486;0.266;2023-08-12T20:08:50;2.43;;;0.87;;
77531;SDS011;70100;44.486;0.266;2023-08-12T20:14:22;0.97;;;0.90;;
77531;SDS011;70100;44.486;0.266;2023-08-12T20:19:55;1.33;;;1.23;;
77531;SDS011;70100;44.486;0.266;2023-08-12T20:25:26;4.73;;;1.10;;
77531;SDS011;70100;44.486;0.266;2023-08-12T20:31:00;1.33;;;0.70;;
77531;SDS011;70100;44.486;0.266;2023-08-12T20:36:34;1.23;;;0.70;;
77531;SDS011;70100;44.486;0.266;2023-08-12T20:42:06;0.80;;;0.67;;
77531;SDS011;70100;44.486;0.266;2023-08-12T20:47:41;1.10;;;0.70;;
77531;SDS011;70100;44.486;0.266;2023-08-12T20:53:13;0.80;;;0.80;;
77531;SDS011;70100;44.486;0.266;2023-08-12T20:58:46;0.60;;;0.60;;
77531;SDS011;70100;44.486;0.266;2023-08-12T21:04:19;0.57;;;0.57;;
77531;SDS011;70100;44.486;0.266;2023-08-12T21:09:53;1.07;;;0.97;;
77531;SDS011;70100;44.486;0.266;2023-08-12T21:15:26;1.70;;;1.37;;
77531;SDS011;70100;44.486;0.266;2023-08-12T21:20:59;1.00;;;0.93;;
77531;SDS011;70100;44.486;0.266;2023-08-12T21:26:32;1.23;;;0.40;;
77531;SDS011;70100;44.486;0.266;2023-08-12T21:32:05;2.33;;;0.60;;
77531;SDS011;70100;44.486;0.266;2023-08-12T21:37:37;1.40;;;1.00;;
77531;SDS011;70100;44.486;0.266;2023-08-12T21:43:09;3.00;;;0.70;;
77531;SDS011;70100;44.486;0.266;2023-08-12T21:48:42;2.93;;;1.00;;
77531;SDS011;70100;44.486;0.266;2023-08-12T21:54:15;2.00;;;0.63;;
77531;SDS011;70100;44.486;0.266;2023-08-12T21:59:49;2.93;;;0.70;;
77531;SDS011;70100;44.486;0.266;2023-08-12T22:05:21;2.53;;;1.10;;
77531;SDS011;70100;44.486;0.266;2023-08-12T22:10:55;2.43;;;1.03;;
77531;SDS011;70100;44.486;0.266;2023-08-12T22:16:27;3.10;;;1.10;;
77531;SDS011;70100;44.486;0.266;2023-08-12T22:22:00;2.00;;;0.77;;
77531;SDS011;70100;44.486;0.266;2023-08-12T22:27:31;1.83;;;0.90;;
77531;SDS011;70100;44.486;0.266;2023-08-12T22:33:05;2.53;;;0.83;;
77531;SDS011;70100;44.486;0.266;2023-08-12T22:38:38;2.23;;;0.93;;
77531;SDS011;70100;44.486;0.266;2023-08-12T22:44:09;2.00;;;0.73;;
77531;SDS011;70100;44.486;0.266;2023-08-12T22:49:42;5.90;;;1.10;;
77531;SDS011;70100;44.486;0.266;2023-08-12T22:55:15;4.47;;;1.17;;
77531;SDS011;70100;44.486;0.266;2023-08-12T23:00:48;3.20;;;1.40;;
77531;SDS011;70100;44.486;0.266;2023-08-12T23:06:21;6.97;;;1.87;;
77531;SDS011;70100;44.486;0.266;2023-08-12T23:11:54;4.43;;;1.37;;
77531;SDS011;70100;44.486;0.266;2023-08-12T23:17:26;2.77;;;1.37;;
77531;SDS011;70100;44.486;0.266;2023-08-12T23:22:59;2.80;;;1.23;;
77531;SDS011;70100;44.486;0.266;2023-08-12T23:28:32;4.50;;;0.97;;
77531;SDS011;70100;44.486;0.266;2023-08-12T23:39:36;4.57;;;1.70;;
77531;SDS011;70100;44.486;0.266;2023-08-12T23:45:09;4.93;;;1.10;;
77531;SDS011;70100;44.486;0.266;2023-08-12T23:50:42;6.27;;;1.23;;
77531;SDS011;70100;44.486;0.266;2023-08-12T23:56:15;3.60;;;1.37;;
